createdAt,value
2022-10-22T00:01:03.733Z,100708.56
2022-10-22T00:04:06.228Z,100724.94
2022-10-22T00:07:08.664Z,100721.34
2022-10-22T00:10:11.170Z,100730.81
2022-10-22T00:13:13.545Z,100720.25
2022-10-22T00:16:15.946Z,100723.06
2022-10-22T00:19:18.356Z,100724.28
2022-10-22T00:22:20.768Z,100717.44
2022-10-22T00:25:23.141Z,100685.31
2022-10-22T00:28:25.734Z,100697.34
2022-10-22T00:31:28.189Z,100684.41
2022-10-22T00:34:30.664Z,100659.34
2022-10-22T00:37:32.999Z,100671.63
2022-10-22T00:40:36.466Z,100675.97
2022-10-22T00:44:32.926Z,100662.13
2022-10-22T00:47:41.059Z,100661.81
2022-10-22T00:50:49.589Z,100649.34
2022-10-22T00:53:56.083Z,100653.06
2022-10-22T00:56:58.494Z,100644.84
2022-10-22T01:00:01.044Z,100650.59
2022-10-22T01:03:03.553Z,100629.09
2022-10-22T01:06:06.243Z,100646.56
2022-10-22T01:09:18.999Z,100642.03
2022-10-22T01:12:27.348Z,100662.22
2022-10-22T01:15:36.120Z,100643.66
2022-10-22T01:18:49.146Z,100644.25
2022-10-22T01:21:59.019Z,100653.50
2022-10-22T01:25:25.039Z,100644.28
2022-10-22T01:28:45.619Z,100631.56
2022-10-22T01:32:05.780Z,100622.41
2022-10-22T01:35:11.408Z,100636.41
2022-10-22T01:38:17.858Z,100622.47
2022-10-22T01:41:20.313Z,100607.16
2022-10-22T01:44:31.192Z,100637.84
2022-10-22T01:47:46.740Z,100644.16
2022-10-22T01:50:53.213Z,100633.75
2022-10-22T01:54:18.077Z,100631.78
2022-10-22T01:57:42.490Z,100620.31
2022-10-22T02:00:50.970Z,100620.16
2022-10-22T02:03:59.468Z,100626.75
2022-10-22T02:07:04.943Z,100619.97
2022-10-22T02:10:09.185Z,100628.78
2022-10-22T02:13:25.140Z,100629.28
2022-10-22T02:16:32.580Z,100639.25
2022-10-22T02:19:42.363Z,100638.56
2022-10-22T02:22:44.923Z,100612.00
2022-10-22T02:25:49.874Z,100607.06
2022-10-22T02:29:08.146Z,100618.34
2022-10-22T02:32:13.127Z,100623.63
2022-10-22T02:35:20.774Z,100624.50
2022-10-22T02:38:24.240Z,100629.13
2022-10-22T02:41:26.859Z,100608.09
2022-10-22T02:44:30.304Z,100625.28
2022-10-22T02:47:33.467Z,100600.25
2022-10-22T02:50:36.036Z,100595.38
2022-10-22T02:53:38.440Z,100609.25
2022-10-22T02:56:41.987Z,100628.56
2022-10-22T02:59:45.043Z,100639.13
2022-10-22T03:02:47.518Z,100634.88
2022-10-22T03:05:52.759Z,100630.97
2022-10-22T03:08:55.181Z,100627.81
2022-10-22T03:11:57.633Z,100645.16
2022-10-22T03:14:59.967Z,100630.41
2022-10-22T03:18:02.393Z,100638.38
2022-10-22T03:21:14.545Z,100630.66
2022-10-22T03:24:22.732Z,100627.25
2022-10-22T03:27:25.844Z,100622.53
2022-10-22T03:30:29.444Z,100629.72
2022-10-22T03:33:32.340Z,100631.31
2022-10-22T03:36:34.749Z,100626.66
2022-10-22T03:39:37.366Z,100631.16
2022-10-22T03:42:40.641Z,100628.44
2022-10-22T03:45:42.997Z,100609.03
2022-10-22T03:48:45.532Z,100615.56
2022-10-22T03:51:47.885Z,100601.53
2022-10-22T03:54:50.217Z,100610.84
2022-10-22T03:57:52.707Z,100597.81
2022-10-22T04:00:55.128Z,100585.19
2022-10-22T04:03:58.211Z,100610.69
2022-10-22T04:07:00.662Z,100600.66
2022-10-22T04:10:03.587Z,100605.34
2022-10-22T04:13:05.997Z,100601.69
2022-10-22T04:16:19.328Z,100608.75
2022-10-22T04:19:23.165Z,100600.19
2022-10-22T04:22:26.156Z,100597.66
2022-10-22T04:25:28.482Z,100612.97
2022-10-22T04:28:31.350Z,100622.06
2022-10-22T04:31:34.039Z,100632.13
2022-10-22T04:34:36.428Z,100605.97
2022-10-22T04:37:39.119Z,100592.78
2022-10-22T04:40:41.949Z,100606.06
2022-10-22T04:43:45.276Z,100597.56
2022-10-22T04:46:47.673Z,100600.56
2022-10-22T04:49:49.988Z,100590.84
2022-10-22T04:52:52.536Z,100586.84
2022-10-22T04:55:55.598Z,100600.59
2022-10-22T04:59:06.788Z,100587.75
2022-10-22T05:02:09.388Z,100579.78
2022-10-22T05:05:11.994Z,100591.19
2022-10-22T05:08:14.362Z,100581.91
2022-10-22T05:11:19.886Z,100598.38
2022-10-22T05:14:24.964Z,100572.41
2022-10-22T05:17:28.758Z,100561.50
2022-10-22T05:20:31.174Z,100566.31
2022-10-22T05:23:33.587Z,100585.28
2022-10-22T05:26:35.903Z,100586.41
2022-10-22T05:29:38.344Z,100593.34
2022-10-22T05:32:40.740Z,100596.25
2022-10-22T05:35:46.707Z,100587.63
2022-10-22T05:38:49.977Z,100601.63
2022-10-22T05:41:53.893Z,100611.88
2022-10-22T05:44:56.265Z,100626.63
2022-10-22T05:47:58.647Z,100615.47
2022-10-22T05:51:06.391Z,100632.03
2022-10-22T05:54:10.959Z,100645.31
2022-10-22T05:57:13.313Z,100609.28
2022-10-22T06:00:17.468Z,100617.94
2022-10-22T06:03:20.204Z,100619.53
2022-10-22T06:06:35.491Z,100649.28
2022-10-22T06:12:48.068Z,100645.94
2022-10-22T06:15:52.670Z,100646.47
2022-10-22T06:18:56.147Z,100657.84
2022-10-22T06:21:59.085Z,100651.31
2022-10-22T06:25:01.472Z,100669.19
2022-10-22T06:28:04.009Z,100670.72
2022-10-22T06:31:07.046Z,100671.84
2022-10-22T06:34:13.529Z,100656.75
2022-10-22T06:37:16.298Z,100666.41
2022-10-22T06:40:19.367Z,100663.75
2022-10-22T06:43:21.699Z,100670.00
2022-10-22T06:46:25.149Z,100679.19
2022-10-22T06:49:27.636Z,100675.78
2022-10-22T06:52:30.010Z,100670.78
2022-10-22T06:55:32.432Z,100658.38
2022-10-22T06:58:35.192Z,100663.84
2022-10-22T07:01:38.225Z,100657.63
2022-10-22T07:04:40.663Z,100636.75
2022-10-22T07:07:43.045Z,100634.44
2022-10-22T07:10:45.505Z,100637.50
2022-10-22T07:13:48.619Z,100623.63
2022-10-22T07:16:50.924Z,100634.47
2022-10-22T07:19:53.432Z,100631.88
2022-10-22T07:22:55.853Z,100654.22
2022-10-22T07:25:59.155Z,100650.63
2022-10-22T07:29:02.073Z,100659.91
2022-10-22T07:32:04.681Z,100662.31
2022-10-22T07:35:07.354Z,100669.50
2022-10-22T07:38:09.744Z,100685.94
2022-10-22T07:41:12.451Z,100706.66
2022-10-22T07:44:14.809Z,100703.63
2022-10-22T07:47:17.167Z,100677.72
2022-10-22T07:50:19.640Z,100679.25
2022-10-22T07:53:22.087Z,100685.84
2022-10-22T07:56:24.569Z,100685.41
2022-10-22T07:59:27.020Z,100697.78
2022-10-22T08:02:29.365Z,100691.81
2022-10-22T08:05:31.767Z,100678.56
2022-10-22T08:08:34.768Z,100686.06
2022-10-22T08:11:38.396Z,100678.72
2022-10-22T08:14:40.796Z,100675.38
2022-10-22T08:17:43.629Z,100645.16
2022-10-22T08:20:46.681Z,100678.13
2022-10-22T08:23:49.112Z,100695.09
2022-10-22T08:26:52.161Z,100707.84
2022-10-22T08:29:54.698Z,100693.78
2022-10-22T08:32:57.540Z,100702.50
2022-10-22T08:35:59.894Z,100688.75
2022-10-22T08:39:03.518Z,100705.81
2022-10-22T08:42:27.150Z,100682.94
2022-10-22T08:45:52.274Z,100691.63
2022-10-22T08:48:57.228Z,100672.44
2022-10-22T08:52:00.182Z,100666.59
2022-10-22T08:55:04.372Z,100659.53
2022-10-22T08:58:30.007Z,100662.13
2022-10-22T09:01:38.870Z,100657.38
2022-10-22T09:04:47.886Z,100658.91
2022-10-22T09:07:50.824Z,100680.53
2022-10-22T09:11:07.659Z,100673.59
2022-10-22T09:17:38.782Z,100688.38
2022-10-22T09:20:49.745Z,100692.84
2022-10-22T09:24:15.164Z,100703.91
2022-10-22T09:27:20.006Z,100711.75
2022-10-22T09:30:23.952Z,100712.44
2022-10-22T09:33:28.323Z,100677.31
2022-10-22T09:36:30.791Z,100688.97
2022-10-22T09:39:41.499Z,100674.88
2022-10-22T09:42:45.393Z,100683.63
2022-10-22T09:45:50.000Z,100684.06
2022-10-22T09:48:55.844Z,100692.53
2022-10-22T09:51:59.549Z,100680.09
2022-10-22T09:55:02.840Z,100690.44
2022-10-22T09:58:05.263Z,100690.28
2022-10-22T10:01:07.628Z,100702.84
2022-10-22T10:04:16.045Z,100692.13
2022-10-22T10:07:21.654Z,100681.81
2022-10-22T10:10:47.365Z,100694.91
2022-10-22T10:13:54.539Z,100700.91
2022-10-22T10:17:01.060Z,100673.50
2022-10-22T10:20:26.630Z,100687.97
2022-10-22T10:23:49.041Z,100683.53
2022-10-22T10:27:06.385Z,100669.19
2022-10-22T10:30:21.156Z,100656.94
2022-10-22T10:33:49.972Z,100673.59
2022-10-22T10:37:19.529Z,100665.03
2022-10-22T10:40:40.537Z,100679.88
2022-10-22T10:43:45.669Z,100673.53
2022-10-22T10:47:16.444Z,100672.72
2022-10-22T10:50:26.448Z,100660.31
2022-10-22T10:53:59.649Z,100667.50
2022-10-22T10:57:20.824Z,100650.09
2022-10-22T11:00:23.919Z,100657.94
2022-10-22T11:03:35.698Z,100642.31
2022-10-22T11:06:40.457Z,100629.25
2022-10-22T11:10:13.098Z,100632.41
2022-10-22T11:13:31.431Z,100608.25
2022-10-22T11:16:42.679Z,100606.56
2022-10-22T11:20:05.251Z,100622.38
2022-10-22T11:23:19.873Z,100625.16
2022-10-22T11:26:35.891Z,100624.81
2022-10-22T11:29:42.060Z,100624.94
2022-10-22T11:32:50.194Z,100624.16
2022-10-22T11:35:53.196Z,100601.53
2022-10-22T11:38:55.672Z,100622.38
2022-10-22T11:41:59.838Z,100600.06
2022-10-22T11:45:08.000Z,100601.78
2022-10-22T11:48:10.356Z,100598.75
2022-10-22T11:51:35.549Z,100610.06
2022-10-22T11:54:42.856Z,100600.22
2022-10-22T11:57:48.554Z,100600.31
2022-10-22T12:00:51.335Z,100591.81
2022-10-22T12:03:59.284Z,100599.84
2022-10-22T12:07:02.359Z,100588.28
2022-10-22T12:10:06.440Z,100592.00
2022-10-22T12:13:14.175Z,100590.47
2022-10-22T12:16:23.613Z,100593.19
2022-10-22T12:19:51.528Z,100606.75
2022-10-22T12:22:55.372Z,100610.44
2022-10-22T12:25:58.273Z,100612.00
2022-10-22T12:29:03.107Z,100592.41
2022-10-22T12:32:05.656Z,100594.31
2022-10-22T12:35:15.066Z,100606.97
2022-10-22T12:38:22.962Z,100600.47
2022-10-22T12:41:37.443Z,100605.41
2022-10-22T12:44:40.620Z,100599.38
2022-10-22T12:47:50.566Z,100602.72
2022-10-22T12:50:55.023Z,100603.44
2022-10-22T12:54:02.204Z,100583.38
2022-10-22T12:57:04.661Z,100589.03
2022-10-22T13:00:21.084Z,100583.09
2022-10-22T13:03:32.762Z,100592.84
2022-10-22T13:06:35.884Z,100571.06
2022-10-22T13:09:40.105Z,100565.47
2022-10-22T13:12:50.076Z,100573.63
2022-10-22T13:15:52.496Z,100570.44
2022-10-22T13:18:54.901Z,100559.69
2022-10-22T13:21:57.281Z,100551.31
2022-10-22T13:25:22.264Z,100587.44
2022-10-22T13:28:27.222Z,100572.81
2022-10-22T13:31:37.757Z,100551.00
2022-10-22T13:34:40.662Z,100562.84
2022-10-22T13:37:43.458Z,100569.28
2022-10-22T13:40:46.751Z,100555.00
2022-10-22T13:43:49.296Z,100548.34
2022-10-22T13:46:51.652Z,100545.38
2022-10-22T13:49:58.264Z,100557.59
2022-10-22T13:53:00.893Z,100535.88
2022-10-22T13:56:03.505Z,100538.56
2022-10-22T13:59:05.840Z,100544.59
2022-10-22T14:02:11.531Z,100530.66
2022-10-22T14:05:14.184Z,100537.44
2022-10-22T14:08:19.085Z,100512.41
2022-10-22T14:11:21.756Z,100519.50
2022-10-22T14:14:24.147Z,100522.16
2022-10-22T14:17:27.777Z,100517.69
2022-10-22T14:20:32.317Z,100522.22
2022-10-22T14:23:36.333Z,100522.56
2022-10-22T14:26:38.713Z,100515.13
2022-10-22T14:29:41.650Z,100521.22
2022-10-22T14:32:44.383Z,100515.38
2022-10-22T14:35:49.737Z,100517.44
2022-10-22T14:38:52.554Z,100520.00
2022-10-22T14:41:54.869Z,100515.50
2022-10-22T14:44:57.260Z,100525.03
2022-10-22T14:47:59.991Z,100534.97
2022-10-22T14:51:02.331Z,100530.84
2022-10-22T14:54:04.798Z,100530.22
2022-10-22T14:57:08.716Z,100532.94
2022-10-22T15:00:18.296Z,100545.78
2022-10-22T15:03:20.636Z,100562.44
2022-10-22T15:06:23.132Z,100559.22
2022-10-22T15:09:25.633Z,100564.19
2022-10-22T15:12:28.172Z,100535.78
2022-10-22T15:15:33.985Z,100546.28
2022-10-22T15:18:41.555Z,100564.56
2022-10-22T15:21:44.803Z,100568.34
2022-10-22T15:24:48.508Z,100559.81
2022-10-22T15:27:52.503Z,100545.19
2022-10-22T15:30:58.295Z,100557.94
2022-10-22T15:34:01.945Z,100558.03
2022-10-22T15:37:06.983Z,100560.91
2022-10-22T15:40:10.686Z,100565.44
2022-10-22T15:43:14.078Z,100565.31
2022-10-22T15:46:18.598Z,100567.75
2022-10-22T15:49:21.971Z,100545.44
2022-10-22T15:52:24.440Z,100566.47
2022-10-22T15:55:26.991Z,100575.78
2022-10-22T15:58:29.370Z,100576.25
2022-10-22T16:01:34.914Z,100578.78
2022-10-22T16:04:38.530Z,100573.53
2022-10-22T16:07:41.170Z,100556.78
2022-10-22T16:10:48.940Z,100587.72
2022-10-22T16:13:57.201Z,100590.25
2022-10-22T16:17:01.619Z,100576.81
2022-10-22T16:20:04.326Z,100577.47
2022-10-22T16:23:07.080Z,100600.97
2022-10-22T16:26:09.890Z,100592.97
2022-10-22T16:29:12.705Z,100600.16
2022-10-22T16:32:16.969Z,100598.78
2022-10-22T16:35:20.045Z,100604.53
2022-10-22T16:38:22.825Z,100607.53
2022-10-22T16:41:26.205Z,100610.19
2022-10-22T16:44:29.345Z,100608.16
2022-10-22T16:47:31.790Z,100612.38
2022-10-22T16:50:34.624Z,100609.72
2022-10-22T16:53:38.280Z,100606.53
2022-10-22T16:56:41.137Z,100611.06
2022-10-22T16:59:43.491Z,100598.44
2022-10-22T17:02:51.226Z,100593.47
2022-10-22T17:05:53.746Z,100592.50
2022-10-22T17:08:56.515Z,100585.00
2022-10-22T17:11:59.098Z,100589.47
2022-10-22T17:15:03.374Z,100603.00
2022-10-22T17:18:06.153Z,100590.50
2022-10-22T17:21:10.869Z,100591.22
2022-10-22T17:24:14.626Z,100590.75
2022-10-22T17:27:17.553Z,100597.19
2022-10-22T17:30:24.808Z,100592.03
2022-10-22T17:33:31.464Z,100579.28
2022-10-22T17:36:35.975Z,100584.41
2022-10-22T17:39:38.830Z,100596.97
2022-10-22T17:42:42.797Z,100596.78
2022-10-22T17:45:46.325Z,100599.81
2022-10-22T17:48:54.028Z,100596.88
2022-10-22T17:51:56.959Z,100601.22
2022-10-22T17:54:59.619Z,100590.09
2022-10-22T17:58:02.299Z,100591.97
2022-10-22T18:01:05.507Z,100595.91
2022-10-22T18:04:08.587Z,100600.88
2022-10-22T18:07:12.278Z,100583.81
2022-10-22T18:10:16.451Z,100608.69
2022-10-22T18:13:20.910Z,100587.66
2022-10-22T18:16:23.956Z,100585.25
2022-10-22T18:19:26.620Z,100584.31
2022-10-22T18:22:29.144Z,100604.97
2022-10-22T18:25:31.865Z,100595.72
2022-10-22T18:28:34.698Z,100597.81
2022-10-22T18:31:37.348Z,100594.56
2022-10-22T18:34:40.159Z,100599.56
2022-10-22T18:37:43.094Z,100587.38
2022-10-22T18:40:46.778Z,100610.06
2022-10-22T18:43:54.670Z,100597.81
2022-10-22T18:46:57.397Z,100605.78
2022-10-22T18:50:00.088Z,100627.22
2022-10-22T18:53:02.557Z,100618.44
2022-10-22T18:56:07.078Z,100615.53
2022-10-22T18:59:21.311Z,100623.47
2022-10-22T19:02:24.395Z,100627.09
2022-10-22T19:05:27.136Z,100621.28
2022-10-22T19:08:30.976Z,100624.25
2022-10-22T19:11:34.458Z,100598.97
2022-10-22T19:14:37.998Z,100595.53
2022-10-22T19:17:41.818Z,100585.06
2022-10-22T19:20:47.137Z,100592.38
2022-10-22T19:23:50.242Z,100596.53
2022-10-22T19:26:52.723Z,100591.41
2022-10-22T19:29:55.307Z,100610.78
2022-10-22T19:32:58.008Z,100615.84
2022-10-22T19:36:05.379Z,100585.00
2022-10-22T19:39:08.891Z,100598.50
2022-10-22T19:42:11.239Z,100606.59
2022-10-22T19:45:13.831Z,100589.56
2022-10-22T19:48:16.344Z,100598.97
2022-10-22T19:51:24.566Z,100627.84
2022-10-22T19:54:28.613Z,100636.44
2022-10-22T19:57:32.008Z,100627.91
2022-10-22T20:00:35.984Z,100634.28
2022-10-22T20:03:39.059Z,100637.56
2022-10-22T20:06:42.053Z,100638.06
2022-10-22T20:09:45.712Z,100652.06
2022-10-22T20:12:48.759Z,100654.41
2022-10-22T20:15:53.476Z,100660.16
2022-10-22T20:19:00.815Z,100661.19
2022-10-22T20:22:03.282Z,100655.63
2022-10-22T20:25:06.148Z,100645.78
2022-10-22T20:28:09.535Z,100657.94
2022-10-22T20:31:14.519Z,100644.09
2022-10-22T20:34:17.105Z,100643.75
2022-10-22T20:37:19.505Z,100644.78
2022-10-22T20:40:22.081Z,100623.03
2022-10-22T20:43:25.738Z,100645.56
2022-10-22T20:46:31.223Z,100649.84
2022-10-22T20:49:33.692Z,100664.34
2022-10-22T20:52:36.279Z,100660.59
2022-10-22T20:55:38.689Z,100627.41
2022-10-22T20:58:47.617Z,100635.50
2022-10-22T21:01:52.059Z,100657.91
2022-10-22T21:04:54.424Z,100667.47
2022-10-22T21:07:58.425Z,100659.09
2022-10-22T21:11:00.901Z,100659.97
2022-10-22T21:14:04.514Z,100671.84
2022-10-22T21:17:08.149Z,100679.63
2022-10-22T21:23:17.760Z,100673.09
2022-10-22T21:26:20.680Z,100679.28
2022-10-22T21:29:23.154Z,100660.09
2022-10-22T21:32:29.020Z,100689.06
2022-10-22T21:35:32.389Z,100685.03
2022-10-22T21:38:34.818Z,100694.41
2022-10-22T21:41:37.756Z,100683.16
2022-10-22T21:44:40.140Z,100687.78
2022-10-22T21:47:43.220Z,100698.19
2022-10-22T21:50:45.881Z,100668.78
2022-10-22T21:53:48.340Z,100682.81
2022-10-22T21:56:50.836Z,100672.56
2022-10-22T21:59:53.211Z,100694.38
2022-10-22T22:02:56.050Z,100683.66
2022-10-22T22:05:59.512Z,100702.88
2022-10-22T22:09:02.767Z,100684.34
2022-10-22T22:12:05.277Z,100710.69
2022-10-22T22:15:08.377Z,100703.69
2022-10-22T22:18:11.610Z,100723.50
2022-10-22T22:21:17.255Z,100718.50
2022-10-22T22:24:19.643Z,100714.00
2022-10-22T22:27:22.042Z,100701.41
2022-10-22T22:30:25.056Z,100718.22
2022-10-22T22:33:27.760Z,100710.25
2022-10-22T22:36:34.980Z,100706.38
2022-10-22T22:39:37.417Z,100730.50
2022-10-22T22:42:39.816Z,100724.47
2022-10-22T22:45:42.175Z,100735.53
2022-10-22T22:48:48.429Z,100736.75
2022-10-22T22:51:51.977Z,100730.06
2022-10-22T22:54:54.477Z,100737.38
2022-10-22T22:57:57.622Z,100745.63
2022-10-22T23:01:16.666Z,100752.50
2022-10-22T23:04:23.660Z,100738.44
2022-10-22T23:07:26.088Z,100760.25
2022-10-22T23:10:28.489Z,100746.56
2022-10-22T23:13:31.758Z,100752.81
2022-10-22T23:16:37.265Z,100739.06
2022-10-22T23:19:39.637Z,100751.06
2022-10-22T23:22:42.154Z,100732.38
2022-10-22T23:25:44.744Z,100755.28
2022-10-22T23:28:47.252Z,100760.53
2022-10-22T23:31:50.804Z,100765.84
2022-10-22T23:34:53.223Z,100767.13
2022-10-22T23:37:55.575Z,100779.75
2022-10-22T23:40:58.002Z,100781.59
2022-10-22T23:44:02.070Z,100795.94
2022-10-22T23:47:04.848Z,100791.91
2022-10-22T23:50:07.886Z,100788.34
2022-10-22T23:53:10.369Z,100789.41
2022-10-22T23:56:15.471Z,100805.50
2022-10-22T23:59:17.877Z,100809.53
